Time;durP1;ratioP1;P1;durP2;ratioP2;P2;SDS_P1;SDS_P2;PMS_P1;PMS_P2;Temp;Humidity;BMP_temperature;BMP_pressure;BME280_temperature;BME280_humidity;BME280_pressure;Samples;Min_cycle;Max_cycle;Signal;HPM_P1;HPM_P2
2023/04/24 00:02:50;;;;;;;6.50;3.50;;;;;;;5.62;57.70;97086.50;6295894;28;20135;-75
2023/04/24 00:05:55;;;;;;;5.10;3.67;;;;;;;5.74;57.48;97082.50;6297739;28;20502;-73
2023/04/24 00:09:00;;;;;;;3.80;3.00;;;;;;;5.65;57.46;97087.28;6297245;28;20041;-73
2023/04/24 00:12:04;;;;;;;4.15;3.38;;;;;;;5.51;57.98;97091.31;6296962;28;20443;-75
2023/04/24 00:15:06;;;;;;;3.20;2.88;;;;;;;5.43;58.19;97088.16;6297288;28;20059;-74
2023/04/24 00:18:13;;;;;;;4.97;3.38;;;;;;;5.36;58.12;97090.19;6297179;28;20056;-74
2023/04/24 00:21:18;;;;;;;3.85;3.42;;;;;;;5.39;57.80;97094.44;6297072;28;20414;-75
2023/04/24 00:24:25;;;;;;;4.25;3.50;;;;;;;5.55;57.10;97099.88;6297223;28;20422;-75
2023/04/24 00:27:29;;;;;;;4.82;3.45;;;;;;;5.72;56.35;97105.25;6296650;28;20057;-73
2023/04/24 00:30:33;;;;;;;8.95;3.58;;;;;;;5.81;56.19;97110.09;6296856;28;20140;-73
2023/04/24 00:33:38;;;;;;;3.42;2.92;;;;;;;5.85;55.73;97111.63;6296934;28;20059;-74
2023/04/24 00:36:42;;;;;;;;;;;;;;;5.89;55.77;97116.72;6296517;28;20052;-73
2023/04/24 00:39:43;;;;;;;3.53;3.22;;;;;;;5.87;55.42;97115.97;6296747;28;20309;-74
2023/04/24 00:42:52;;;;;;;4.35;3.05;;;;;;;5.81;55.58;97110.09;6296865;28;20416;-74
2023/04/24 00:45:56;;;;;;;9.05;3.10;;;;;;;5.75;55.41;97110.34;6296607;28;20056;-74
2023/04/24 00:49:02;;;;;;;3.90;3.03;;;;;;;5.73;55.29;97106.94;6296298;28;20052;-74
2023/04/24 00:52:08;;;;;;;3.95;2.80;;;;;;;5.83;55.46;97131.75;6296581;28;20052;-73
2023/04/24 00:55:10;;;;;;;;;;;;;;;5.89;55.00;97130.66;6296545;28;20051;-73
2023/04/24 00:58:18;;;;;;;6.63;2.88;;;;;;;5.83;54.95;97123.94;6296275;28;19916;-73
2023/04/24 01:01:25;;;;;;;6.45;3.25;;;;;;;5.84;54.96;97124.78;6296467;28;20044;-75
2023/04/24 01:04:31;;;;;;;5.40;3.30;;;;;;;5.92;54.43;97132.28;6296305;28;20040;-73
2023/04/24 01:07:33;;;;;;;4.47;3.75;;;;;;;5.91;54.38;97130.56;6296134;28;20052;-73
2023/04/24 01:10:40;;;;;;;5.45;3.80;;;;;;;5.96;54.09;97133.88;6295691;28;20040;-74
2023/04/24 01:13:45;;;;;;;4.30;3.22;;;;;;;5.99;53.93;97138.97;6295218;28;20056;-74
2023/04/24 01:16:49;;;;;;;3.65;2.65;;;;;;;5.99;54.25;97149.41;6295123;28;20135;-73
2023/04/24 01:19:57;;;;;;;4.55;3.13;;;;;;;6.02;53.82;97157.13;6296049;28;20048;-74
2023/04/24 01:23:01;;;;;;;7.85;3.22;;;;;;;6.06;53.93;97161.31;6295902;28;20541;-74
2023/04/24 01:26:05;;;;;;;3.63;3.03;;;;;;;6.05;53.42;97164.84;6295553;28;20052;-74
2023/04/24 01:29:12;;;;;;;5.05;3.33;;;;;;;6.11;53.31;97169.78;6295607;28;20502;-74
2023/04/24 01:32:19;;;;;;;7.10;4.03;;;;;;;6.14;53.43;97174.88;6295040;28;20429;-74
2023/04/24 01:35:25;;;;;;;5.53;3.42;;;;;;;6.14;52.94;97169.66;6295220;28;20036;-74
2023/04/24 01:38:30;;;;;;;4.30;3.25;;;;;;;6.13;52.98;97165.34;6293059;28;20570;-75
2023/04/24 01:41:34;;;;;;;8.52;3.42;;;;;;;6.20;52.90;97182.50;6294881;28;20056;-74
2023/04/24 01:44:36;;;;;;;5.60;3.40;;;;;;;6.25;52.77;97187.50;6294700;28;20048;-74
2023/04/24 01:47:45;;;;;;;12.88;3.92;;;;;;;6.38;52.35;97193.06;6295056;28;20044;-75
2023/04/24 01:50:49;;;;;;;4.68;3.58;;;;;;;6.43;52.41;97198.94;6295338;28;20040;-74
2023/04/24 01:53:57;;;;;;;5.43;3.17;;;;;;;6.46;51.94;97202.28;6295174;28;20048;-74
2023/04/24 01:57:02;;;;;;;4.65;3.55;;;;;;;6.56;51.92;97207.94;6295099;28;20427;-74
2023/04/24 02:00:11;;;;;;;4.82;3.28;;;;;;;6.57;51.94;97198.31;6295038;28;20041;-74
2023/04/24 02:03:14;;;;;;;5.65;3.92;;;;;;;6.69;51.72;97203.88;6294321;28;20526;-74
2023/04/24 02:06:18;;;;;;;5.57;3.50;;;;;;;6.83;51.35;97212.91;6275406;28;20044;-74
2023/04/24 02:09:22;;;;;;;7.75;3.88;;;;;;;6.99;51.02;97219.13;6294415;28;20048;-74
2023/04/24 02:12:26;;;;;;;4.53;2.95;;;;;;;7.07;50.65;97219.63;6294567;28;20055;-75
2023/04/24 02:15:27;;;;;;;5.38;3.45;;;;;;;7.16;50.52;97224.47;6294489;28;20037;-74
2023/04/24 02:18:31;;;;;;;;;;;;;;;7.28;50.17;97222.19;6295151;28;20080;-74
2023/04/24 02:21:34;;;;;;;4.93;3.08;;;;;;;7.39;50.17;97225.19;6294860;28;20014;-74
2023/04/24 02:24:39;;;;;;;3.30;2.75;;;;;;;7.48;50.18;97224.75;6294436;28;20040;-74
2023/04/24 02:27:45;;;;;;;4.78;2.65;;;;;;;7.61;49.98;97225.88;6309769;28;20385;-73
2023/04/24 02:30:47;;;;;;;5.18;2.53;;;;;;;7.75;49.39;97227.81;6293684;28;20055;-74
2023/04/24 02:33:51;;;;;;;6.43;2.72;;;;;;;7.97;48.79;97235.47;6294432;28;20052;-73
2023/04/24 02:36:54;;;;;;;6.03;2.90;;;;;;;8.19;48.36;97237.06;6293729;28;20557;-74
2023/04/24 02:39:58;;;;;;;3.28;2.58;;;;;;;8.28;48.02;97236.59;6294607;28;20037;-74
2023/04/24 02:43:00;;;;;;;3.08;2.40;;;;;;;8.46;47.71;97235.69;6293081;28;20080;-74
2023/04/24 02:46:04;;;;;;;3.42;2.50;;;;;;;8.61;47.54;97238.50;6292992;28;20417;-73
2023/04/24 02:49:05;;;;;;;3.63;2.30;;;;;;;8.78;47.04;97246.34;6294246;28;20044;-75
2023/04/24 02:52:11;;;;;;;8.80;2.67;;;;;;;8.91;46.64;97257.88;6294087;28;20067;-74
2023/04/24 02:55:13;;;;;;;;;;;;;;;9.11;46.36;97253.34;6293681;28;20513;-73
2023/04/24 02:58:19;;;;;;;;;;;;;;;9.27;45.93;97264.75;6294661;28;19927;-74
2023/04/24 03:01:23;;;;;;;3.90;2.05;;;;;;;9.44;44.92;97267.31;6294181;28;19920;-74
2023/04/24 03:04:30;;;;;;;2.60;2.40;;;;;;;9.62;44.44;97264.63;6293965;28;20477;-74
2023/04/24 03:07:35;;;;;;;2.85;2.45;;;;;;;9.84;44.04;97274.81;6293172;28;20075;-73
2023/04/24 03:10:39;;;;;;;3.78;2.47;;;;;;;9.96;43.49;97279.38;6293173;28;20048;-74
2023/04/24 03:13:43;;;;;;;3.33;2.10;;;;;;;10.09;42.72;97277.75;6292358;28;20049;-74
2023/04/24 03:16:49;;;;;;;;;;;;;;;10.25;42.19;97285.63;6295568;28;20060;-75
2023/04/24 03:19:51;;;;;;;3.60;2.28;;;;;;;10.33;42.25;97286.06;6297798;28;19925;-73
2023/04/24 03:22:52;;;;;;;2.47;1.60;;;;;;;10.49;41.40;97286.03;6298190;28;20048;-74
2023/04/24 03:25:57;;;;;;;5.60;2.10;;;;;;;10.59;41.38;97282.84;6298132;28;20052;-74
2023/04/24 03:28:58;;;;;;;3.95;1.70;;;;;;;10.64;41.26;97284.28;6297773;28;20127;-74
2023/04/24 03:32:05;;;;;;;3.45;2.05;;;;;;;10.81;40.70;97290.34;6298154;28;20512;-74
2023/04/24 03:35:08;;;;;;;4.80;2.17;;;;;;;10.98;40.05;97303.34;6298030;28;20044;-74
2023/04/24 03:38:13;;;;;;;4.10;2.00;;;;;;;11.15;39.25;97299.69;6297849;28;20170;-74
2023/04/24 03:41:22;;;;;;;2.47;1.58;;;;;;;11.25;39.20;97308.75;6297898;28;20044;-74
2023/04/24 03:44:29;;;;;;;2.72;1.55;;;;;;;11.38;38.84;97314.09;6297310;28;20425;-73
2023/04/24 03:47:32;;;;;;;4.03;1.77;;;;;;;11.47;38.59;97316.22;6297847;28;20422;-75
2023/04/24 03:50:38;;;;;;;2.88;1.60;;;;;;;11.64;37.92;97318.66;6297862;28;20052;-74
2023/04/24 03:53:44;;;;;;;;;;;;;;;11.77;38.03;97326.63;6298121;28;20040;-75
2023/04/24 03:56:48;;;;;;;4.50;1.92;;;;;;;11.79;37.70;97314.19;6297475;28;19920;-75
2023/04/24 03:59:53;;;;;;;4.03;1.97;;;;;;;12.08;37.06;97320.28;6297771;28;20053;-75
2023/04/24 04:02:57;;;;;;;4.20;1.70;;;;;;;12.15;36.98;97320.75;6297766;28;20083;-75
2023/04/24 04:06:03;;;;;;;2.38;1.38;;;;;;;12.27;36.70;97321.75;6297409;28;20040;-74
2023/04/24 04:09:04;;;;;;;3.38;1.60;;;;;;;12.45;36.25;97331.13;6296704;28;20047;-75
2023/04/24 04:12:15;;;;;;;2.78;1.73;;;;;;;12.60;35.66;97329.28;6297091;28;20534;-74
2023/04/24 04:15:22;;;;;;;1.55;1.45;;;;;;;12.79;34.95;97337.69;6297599;28;20044;-74
2023/04/24 04:18:29;;;;;;;1.48;1.17;;;;;;;12.87;34.96;97339.81;6296360;28;20049;-74
2023/04/24 04:21:34;;;;;;;3.17;1.38;;;;;;;12.94;34.93;97346.38;6297227;28;20044;-74
2023/04/24 04:24:40;;;;;;;2.13;1.23;;;;;;;13.09;34.25;97343.66;6296422;28;20048;-74
2023/04/24 04:27:48;;;;;;;1.77;1.08;;;;;;;13.19;34.04;97342.06;6295819;28;20131;-75
2023/04/24 04:30:53;;;;;;;3.22;1.65;;;;;;;13.40;33.01;97345.94;6296228;28;20052;-75
2023/04/24 04:34:01;;;;;;;1.80;1.23;;;;;;;13.57;32.83;97334.19;6296810;28;20044;-77
2023/04/24 04:37:05;;;;;;;1.70;1.13;;;;;;;13.75;32.23;97347.91;6296245;28;20048;-76
2023/04/24 04:40:11;;;;;;;3.35;1.23;;;;;;;13.84;32.02;97342.00;6296514;28;20045;-74
2023/04/24 04:43:16;;;;;;;3.83;1.33;;;;;;;14.07;31.16;97343.00;6296372;28;20055;-74
2023/04/24 04:46:21;;;;;;;3.95;1.00;;;;;;;14.23;30.59;97348.03;6294494;28;20143;-74
2023/04/24 04:49:28;;;;;;;2.15;1.15;;;;;;;14.40;29.56;97349.47;6295748;28;20055;-74
2023/04/24 04:52:33;;;;;;;1.23;0.90;;;;;;;14.53;29.49;97354.75;6296390;28;20040;-74
2023/04/24 04:55:35;;;;;;;1.00;0.75;;;;;;;15.67;27.89;97363.78;6296206;28;20543;-73
2023/04/24 04:58:39;;;;;;;2.67;1.05;;;;;;;19.91;23.07;97367.34;6296151;28;20040;-75
2023/04/24 05:01:47;;;;;;;1.92;0.73;;;;;;;24.30;19.47;97375.47;6296207;28;20036;-74
2023/04/24 05:04:54;;;;;;;3.08;0.60;;;;;;;27.94;16.40;97370.28;6296280;28;20494;-73
2023/04/24 05:08:03;;;;;;;1.40;0.85;;;;;;;31.08;13.97;97362.31;6296060;28;20048;-74
2023/04/24 05:11:07;;;;;;;1.15;0.50;;;;;;;33.28;12.32;97377.38;6295918;28;20055;-75
2023/04/24 05:14:15;;;;;;;2.35;0.52;;;;;;;34.65;11.31;97376.34;6294908;28;20490;-74
2023/04/24 05:17:18;;;;;;;1.65;0.45;;;;;;;36.98;10.53;97384.38;6295759;28;20522;-75
2023/04/24 05:20:27;;;;;;;1.15;0.55;;;;;;;38.78;9.64;97382.06;6295887;28;20051;-77
2023/04/24 05:23:38;;;;;;;1.10;0.20;;;;;;;40.10;8.81;97387.03;6295730;28;20122;-74
2023/04/24 05:26:46;;;;;;;0.40;0.20;;;;;;;41.64;7.85;97392.00;6295939;28;20048;-74
2023/04/24 05:29:53;;;;;;;1.08;0.25;;;;;;;42.11;7.19;97401.63;6295661;28;20044;-75
2023/04/24 05:32:57;;;;;;;1.65;0.30;;;;;;;42.45;7.27;97407.13;6295635;28;20047;-74
2023/04/24 05:36:05;;;;;;;1.35;0.38;;;;;;;42.63;6.42;97404.69;6295916;28;20044;-75
2023/04/24 05:39:09;;;;;;;1.50;0.35;;;;;;;43.21;6.46;97413.72;6295629;28;20047;-74
2023/04/24 05:42:15;;;;;;;0.93;0.40;;;;;;;43.88;5.64;97402.50;6294604;28;20421;-74
2023/04/24 05:45:17;;;;;;;1.05;0.50;;;;;;;43.67;5.81;97404.75;6295071;28;20047;-74
2023/04/24 05:48:25;;;;;;;0.60;0.22;;;;;;;44.03;5.66;97406.16;6295345;28;20457;-74
2023/04/24 05:51:30;;;;;;;3.20;0.50;;;;;;;45.31;5.04;97417.59;6293191;28;20371;-74
2023/04/24 05:54:37;;;;;;;0.82;0.70;;;;;;;45.53;4.87;97425.22;6294754;28;20046;-74
2023/04/24 05:57:43;;;;;;;2.08;0.50;;;;;;;47.02;4.80;97425.81;6294672;28;20045;-74
2023/04/24 06:00:48;;;;;;;1.42;0.90;;;;;;;47.89;4.10;97428.78;6295092;28;20052;-74
2023/04/24 06:03:53;;;;;;;0.85;0.30;;;;;;;48.01;4.14;97434.50;6295033;28;20044;-74
2023/04/24 06:06:55;;;;;;;0.35;0.10;;;;;;;48.09;4.00;97425.28;6294854;28;20242;-75
2023/04/24 06:10:05;;;;;;;1.58;0.30;;;;;;;47.22;3.95;97414.09;6294704;28;20040;-74
2023/04/24 06:13:11;;;;;;;0.95;0.15;;;;;;;47.19;4.35;97413.91;6294718;28;20036;-74
2023/04/24 06:16:17;;;;;;;0.47;0.22;;;;;;;48.21;4.15;97419.06;6294529;28;20063;-76
2023/04/24 06:19:21;;;;;;;1.65;0.57;;;;;;;46.69;4.00;97412.28;6293879;28;20061;-74
2023/04/24 06:22:29;;;;;;;1.90;0.35;;;;;;;46.14;4.27;97407.03;6294918;28;20036;-75
2023/04/24 06:25:31;;;;;;;0.20;0.20;;;;;;;46.85;3.95;97409.06;6294330;28;20056;-74
2023/04/24 06:28:34;;;;;;;0.50;0.30;;;;;;;46.99;3.74;97413.34;6294458;28;20143;-75
2023/04/24 06:31:42;;;;;;;1.45;0.40;;;;;;;46.64;4.15;97426.31;6294464;28;20040;-75
2023/04/24 06:34:47;;;;;;;0.70;0.30;;;;;;;47.41;3.93;97415.78;6293852;28;20044;-74
2023/04/24 06:37:51;;;;;;;1.42;0.63;;;;;;;47.88;3.27;97418.78;6292051;28;20052;-74
2023/04/24 06:40:54;;;;;;;1.52;0.40;;;;;;;47.99;3.34;97414.50;6293990;28;20064;-74
2023/04/24 06:43:56;;;;;;;1.13;0.25;;;;;;;47.52;3.60;97410.72;6294220;28;20060;-74
2023/04/24 06:47:00;;;;;;;2.45;0.32;;;;;;;46.46;3.85;97407.88;6293616;28;20059;-75
2023/04/24 06:50:05;;;;;;;2.28;0.40;;;;;;;47.32;3.45;97417.72;6294220;28;20052;-74
2023/04/24 06:53:10;;;;;;;1.17;0.30;;;;;;;47.28;3.52;97423.13;6298044;28;20045;-74
2023/04/24 06:56:19;;;;;;;1.27;0.40;;;;;;;47.40;3.61;97425.28;6299191;28;20048;-75
2023/04/24 06:59:25;;;;;;;0.70;0.40;;;;;;;48.81;3.03;97422.84;6298188;28;20048;-75
2023/04/24 07:02:28;;;;;;;0.73;0.20;;;;;;;50.72;2.67;97426.09;6298817;28;20048;-75
2023/04/24 07:05:34;;;;;;;0.90;0.20;;;;;;;52.20;2.23;97432.28;6297333;28;20048;-74
2023/04/24 07:08:35;;;;;;;1.15;0.35;;;;;;;52.55;2.06;97426.00;6297826;28;20049;-74
2023/04/24 07:11:40;;;;;;;0.22;0.13;;;;;;;51.44;2.20;97426.41;6297656;28;20040;-75
2023/04/24 07:14:44;;;;;;;0.75;0.20;;;;;;;50.86;2.35;97432.16;6299009;28;20044;-74
2023/04/24 07:17:47;;;;;;;1.25;0.30;;;;;;;49.60;2.87;97420.41;6296423;28;20449;-74
2023/04/24 07:20:54;;;;;;;1.75;0.20;;;;;;;49.48;2.57;97429.53;6298293;28;20056;-74
2023/04/24 07:24:01;;;;;;;0.30;0.20;;;;;;;48.41;3.08;97413.91;6298805;28;20125;-74
2023/04/24 07:27:08;;;;;;;1.80;0.20;;;;;;;49.08;2.58;97415.16;6298769;28;20045;-73
2023/04/24 07:30:11;;;;;;;0.28;0.20;;;;;;;49.30;2.47;97417.66;6298407;28;20164;-75
2023/04/24 07:33:13;;;;;;;0.40;0.20;;;;;;;49.63;2.75;97426.16;6296663;28;20052;-74
2023/04/24 07:36:20;;;;;;;2.03;0.95;;;;;;;48.67;2.78;97422.25;6298258;28;20497;-74
2023/04/24 07:39:29;;;;;;;1.15;0.80;;;;;;;48.15;2.91;97422.38;6298215;28;20045;-74
2023/04/24 07:42:34;;;;;;;0.60;0.40;;;;;;;46.40;3.42;97414.72;6298055;28;20418;-74
2023/04/24 07:45:40;;;;;;;1.13;0.60;;;;;;;46.29;3.38;97409.44;6297432;28;20048;-74
2023/04/24 07:48:47;;;;;;;1.35;0.50;;;;;;;46.69;3.41;97417.84;6297641;28;20051;-75
2023/04/24 07:51:56;;;;;;;0.68;0.30;;;;;;;47.42;3.54;97417.41;6297759;28;20041;-74
2023/04/24 07:55:01;;;;;;;0.80;0.30;;;;;;;49.00;2.76;97431.59;6296959;28;20127;-73
2023/04/24 07:58:09;;;;;;;0.80;0.20;;;;;;;48.18;2.83;97427.28;6297131;28;20056;-74
2023/04/24 08:01:16;;;;;;;1.30;0.30;;;;;;;48.11;3.11;97425.78;6297216;28;20063;-73
2023/04/24 08:04:23;;;;;;;1.98;0.28;;;;;;;48.64;2.67;97429.31;6296708;28;20497;-75
2023/04/24 08:07:27;;;;;;;0.73;0.30;;;;;;;49.94;2.51;97429.69;6297197;28;20532;-75
2023/04/24 08:10:30;;;;;;;0.52;0.32;;;;;;;50.13;2.40;97427.19;6297287;28;20059;-75
2023/04/24 08:13:36;;;;;;;1.05;0.45;;;;;;;49.42;2.72;97426.13;6297210;28;20048;-75
2023/04/24 08:16:39;;;;;;;1.42;0.40;;;;;;;48.47;2.61;97434.91;6297094;28;20131;-74
2023/04/24 08:19:47;;;;;;;0.80;0.40;;;;;;;47.30;3.27;97420.00;6297501;28;20056;-75
2023/04/24 08:22:51;;;;;;;0.70;0.40;;;;;;;47.11;3.37;97423.91;6297491;28;20079;-74
2023/04/24 08:25:53;;;;;;;0.40;0.40;;;;;;;47.07;3.14;97425.69;6295092;28;20186;-74
2023/04/24 08:28:59;;;;;;;1.60;0.77;;;;;;;47.10;3.13;97427.81;6296671;28;20410;-75
2023/04/24 08:32:04;;;;;;;0.88;0.50;;;;;;;46.43;3.57;97419.66;6296550;28;20056;-74
2023/04/24 08:35:09;;;;;;;1.48;0.45;;;;;;;45.72;3.39;97417.50;6296577;28;20080;-74
2023/04/24 08:38:16;;;;;;;0.90;0.40;;;;;;;45.51;3.79;97416.31;6296481;28;20498;-75
2023/04/24 08:41:25;;;;;;;1.45;0.45;;;;;;;45.80;3.70;97413.97;6296817;28;20048;-74
2023/04/24 08:44:35;;;;;;;0.52;0.32;;;;;;;47.39;3.44;97412.47;6296759;28;20094;-74
2023/04/24 08:47:42;;;;;;;0.90;0.50;;;;;;;47.47;3.35;97415.28;6297103;28;20044;-74
2023/04/24 08:50:53;;;;;;;0.73;0.50;;;;;;;47.45;2.99;97422.38;6296398;28;20056;-74
2023/04/24 08:54:03;;;;;;;0.85;0.20;;;;;;;47.54;3.07;97442.69;6296359;28;20036;-74
2023/04/24 08:57:11;;;;;;;0.73;0.22;;;;;;;46.68;3.41;97410.63;6295880;28;20055;-73
2023/04/24 09:00:14;;;;;;;2.67;1.35;;;;;;;45.73;3.65;97423.91;6294756;28;20082;-74
2023/04/24 09:03:21;;;;;;;0.80;0.43;;;;;;;45.56;3.61;97410.69;6296081;28;20417;-75
2023/04/24 09:06:28;;;;;;;1.92;0.47;;;;;;;45.80;3.53;97413.97;6296220;28;20060;-74
2023/04/24 09:09:35;;;;;;;0.98;0.25;;;;;;;45.39;3.62;97403.78;6296104;28;20044;-74
2023/04/24 09:12:37;;;;;;;1.77;0.80;;;;;;;44.46;4.12;97404.00;6295428;28;20048;-75
2023/04/24 09:15:42;;;;;;;1.90;0.52;;;;;;;44.06;4.25;97417.47;6295619;28;20498;-74
2023/04/24 09:18:46;;;;;;;1.50;0.68;;;;;;;43.28;4.31;97403.09;6295539;28;20137;-74
2023/04/24 09:21:53;;;;;;;1.75;1.10;;;;;;;41.21;5.24;97388.97;6295343;28;20056;-74
2023/04/24 09:25:31;;;;;;;1.10;0.88;;;;;;;41.58;5.16;97415.28;6295953;28;20052;-75
2023/04/24 09:28:38;;;;;;;1.17;0.70;;;;;;;40.61;5.65;97398.00;6294943;28;20052;-74
2023/04/24 09:31:43;;;;;;;1.60;0.38;;;;;;;40.81;5.45;97412.84;6295543;28;20044;-73
2023/04/24 09:34:48;;;;;;;1.23;0.60;;;;;;;41.41;5.32;97410.91;6295630;28;20044;-73
2023/04/24 09:37:52;;;;;;;0.70;0.60;;;;;;;42.93;4.42;97411.84;6295214;28;20442;-74
2023/04/24 09:40:53;;;;;;;1.67;0.80;;;;;;;42.85;4.33;97405.03;6294541;28;20071;-73
2023/04/24 09:44:10;;;;;;;2.00;1.05;;;;;;;41.13;4.95;97384.84;6295051;28;20036;-74
2023/04/24 09:47:14;;;;;;;2.00;0.90;;;;;;;40.78;5.12;97394.09;6295344;28;20090;-73
2023/04/24 09:50:24;;;;;;;1.13;0.60;;;;;;;40.19;5.60;97406.63;6295410;28;20044;-75
2023/04/24 09:53:29;;;;;;;0.50;0.28;;;;;;;40.60;5.70;97390.84;6294750;28;20049;-74
2023/04/24 09:56:34;;;;;;;1.50;0.40;;;;;;;41.31;5.30;97388.09;6294953;28;20573;-75
2023/04/24 09:59:48;;;;;;;1.00;0.70;;;;;;;40.70;5.30;97400.22;6294823;28;20041;-74
2023/04/24 10:03:00;;;;;;;2.30;0.98;;;;;;;38.40;6.29;97384.91;6294077;28;20109;-74
2023/04/24 10:06:10;;;;;;;1.10;0.90;;;;;;;38.53;6.09;97380.00;6294988;28;20052;-74
2023/04/24 10:09:18;;;;;;;1.27;0.60;;;;;;;38.37;6.07;97385.41;6294700;28;20053;-74
2023/04/24 10:12:26;;;;;;;0.50;0.47;;;;;;;37.05;6.20;97372.13;6294969;28;20146;-74
2023/04/24 10:15:31;;;;;;;2.47;0.50;;;;;;;35.95;6.86;97385.66;6294960;28;20052;-76
2023/04/24 10:18:39;;;;;;;0.90;0.55;;;;;;;36.28;6.69;97383.16;6294702;28;20401;-73
2023/04/24 10:21:42;;;;;;;1.83;0.63;;;;;;;36.90;6.38;97380.16;6293767;28;20528;-74
2023/04/24 10:24:50;;;;;;;1.65;0.50;;;;;;;37.51;6.04;97380.03;6294687;28;20045;-74
2023/04/24 10:27:59;;;;;;;1.55;0.80;;;;;;;38.43;5.50;97396.47;6294027;28;20452;-74
2023/04/24 10:31:04;;;;;;;0.50;0.30;;;;;;;38.30;6.00;97381.22;6294619;28;20048;-74
2023/04/24 10:34:08;;;;;;;2.33;0.70;;;;;;;38.35;6.08;97384.84;6294258;28;20049;-73
2023/04/24 10:37:16;;;;;;;1.00;0.60;;;;;;;38.07;5.97;97371.47;6294385;28;21970;-74
2023/04/24 10:40:26;;;;;;;2.60;1.02;;;;;;;37.40;6.42;97384.59;6294173;28;20166;-74
2023/04/24 10:43:33;;;;;;;3.50;0.63;;;;;;;35.60;7.05;97369.47;6294520;28;20135;-74
2023/04/24 10:46:38;;;;;;;2.72;0.75;;;;;;;35.51;7.03;97362.72;6294037;28;20095;-75
2023/04/24 10:49:40;;;;;;;0.85;0.63;;;;;;;35.33;7.20;97354.72;6293715;28;20398;-74
2023/04/24 10:52:46;;;;;;;1.50;0.50;;;;;;;35.82;6.96;97369.56;6292022;28;20067;-74
2023/04/24 10:56:04;;;;;;;1.92;0.77;;;;;;;35.62;7.18;97361.84;6294219;28;20094;-73
2023/04/24 10:59:23;;;;;;;1.70;0.70;;;;;;;35.39;7.25;97361.97;6294111;28;20052;-74
2023/04/24 11:02:40;;;;;;;1.40;0.30;;;;;;;35.38;7.52;97352.06;6293669;28;20048;-74
2023/04/24 11:05:59;;;;;;;1.83;0.70;;;;;;;34.85;7.61;97354.91;6293568;28;20139;-74
2023/04/24 11:09:12;;;;;;;1.90;0.55;;;;;;;34.18;7.83;97344.44;6294429;28;20079;-74
2023/04/24 11:12:16;;;;;;;2.92;0.63;;;;;;;33.71;8.19;97357.22;6294624;28;20044;-75
2023/04/24 11:15:21;;;;;;;2.20;0.90;;;;;;;33.30;8.81;97353.44;6292853;28;20043;-75
2023/04/24 11:18:25;;;;;;;1.73;0.52;;;;;;;33.21;8.90;97349.41;6293137;28;20053;-75
2023/04/24 11:21:48;;;;;;;5.82;0.88;;;;;;;33.60;8.50;97345.22;6293614;28;20044;-75
2023/04/24 11:24:53;;;;;;;1.17;0.80;;;;;;;32.60;9.05;97338.41;6293596;28;20056;-74
2023/04/24 11:28:14;;;;;;;2.63;0.65;;;;;;;32.07;9.47;97363.47;6293842;28;20044;-74
2023/04/24 11:31:40;;;;;;;1.35;0.70;;;;;;;31.88;9.10;97342.72;6293852;28;20510;-74
2023/04/24 11:34:47;;;;;;;1.02;0.50;;;;;;;31.05;9.68;97341.00;6293423;28;20506;-75
2023/04/24 11:37:50;;;;;;;0.60;0.55;;;;;;;30.36;10.47;97329.81;6293250;28;20510;-75
2023/04/24 11:40:59;;;;;;;1.30;0.63;;;;;;;30.52;10.15;97335.81;6298223;28;20421;-74
2023/04/24 11:44:06;;;;;;;1.58;0.50;;;;;;;31.01;9.83;97334.34;6298316;28;20465;-75
2023/04/24 11:47:12;;;;;;;1.13;0.82;;;;;;;31.12;9.98;97330.94;6296973;28;20040;-74
2023/04/24 11:50:25;;;;;;;1.00;0.50;;;;;;;31.28;9.65;97330.41;6298319;28;20125;-74
2023/04/24 11:53:30;;;;;;;5.78;0.98;;;;;;;31.53;9.62;97337.78;6298273;28;20090;-74
2023/04/24 11:56:34;;;;;;;1.48;0.65;;;;;;;30.81;10.23;97337.19;6297762;28;20044;-75
2023/04/24 11:59:37;;;;;;;2.75;1.20;;;;;;;29.08;10.87;97340.91;6297757;28;20072;-75
2023/04/24 12:02:42;;;;;;;2.58;0.85;;;;;;;28.64;11.26;97333.22;6296010;28;20040;-75
2023/04/24 12:05:48;;;;;;;1.95;0.80;;;;;;;28.35;11.35;97335.16;6296814;28;20045;-75
2023/04/24 12:08:57;;;;;;;4.35;0.80;;;;;;;27.96;11.46;97333.91;6296269;28;20529;-76
2023/04/24 12:12:08;;;;;;;1.50;0.50;;;;;;;27.61;11.67;97335.72;6297437;28;20044;-75
2023/04/24 12:15:16;;;;;;;1.95;0.80;;;;;;;27.75;11.65;97334.78;6297816;28;20052;-75
2023/04/24 12:18:24;;;;;;;2.25;0.80;;;;;;;28.06;11.34;97336.28;6296893;28;20052;-75
2023/04/24 12:21:30;;;;;;;0.68;0.60;;;;;;;28.24;11.53;97341.16;6297090;28;20044;-75
2023/04/24 12:24:31;;;;;;;1.30;0.90;;;;;;;28.11;11.34;97317.56;6296588;28;20052;-75
2023/04/24 12:27:38;;;;;;;1.40;0.70;;;;;;;27.95;11.73;97334.13;6296608;28;20510;-75
2023/04/24 12:30:44;;;;;;;1.40;0.68;;;;;;;27.94;11.81;97340.53;6296860;28;20047;-76
2023/04/24 12:33:46;;;;;;;1.02;0.60;;;;;;;27.88;11.79;97330.53;6297155;28;20502;-75
2023/04/24 12:36:51;;;;;;;2.42;0.68;;;;;;;27.98;11.91;97323.72;6296315;28;20509;-74
2023/04/24 12:40:00;;;;;;;2.45;0.98;;;;;;;28.31;11.76;97328.50;6295115;28;20125;-76
2023/04/24 12:43:19;;;;;;;0.88;0.57;;;;;;;27.88;12.08;97317.81;6296709;28;20040;-74
2023/04/24 12:46:21;;;;;;;1.08;0.73;;;;;;;27.33;12.52;97332.16;6296042;28;20051;-76
2023/04/24 12:49:30;;;;;;;1.85;0.57;;;;;;;27.37;12.67;97325.31;6296170;28;20040;-75
2023/04/24 12:52:34;;;;;;;1.00;0.60;;;;;;;27.25;12.69;97331.25;6296596;28;20509;-75
2023/04/24 12:55:40;;;;;;;2.00;0.52;;;;;;;27.14;12.56;97323.63;6296241;28;20044;-75
2023/04/24 12:58:42;;;;;;;0.98;0.70;;;;;;;27.03;13.06;97321.44;6295073;28;20250;-77
2023/04/24 13:01:49;;;;;;;2.22;0.80;;;;;;;26.96;12.81;97323.25;6296058;28;20119;-74
2023/04/24 13:04:54;;;;;;;1.70;0.80;;;;;;;26.91;13.23;97328.38;6295545;28;20421;-76
2023/04/24 13:07:58;;;;;;;;;;;;;;;26.94;13.07;97328.00;6295831;28;20060;-75
2023/04/24 13:11:05;;;;;;;4.32;1.98;;;;;;;26.36;13.17;97317.97;6295343;28;19924;-76
2023/04/24 13:14:15;;;;;;;2.75;1.60;;;;;;;25.68;13.08;97337.94;6310832;28;20056;-75
2023/04/24 13:17:22;;;;;;;2.65;0.93;;;;;;;24.96;13.47;97339.16;6295137;28;20044;-75
2023/04/24 13:20:26;;;;;;;3.33;1.85;;;;;;;24.57;14.00;97337.38;6294799;28;20048;-75
2023/04/24 13:23:32;;;;;;;3.65;2.22;;;;;;;24.18;13.96;97340.88;6294862;28;20114;-75
2023/04/24 13:26:39;;;;;;;2.05;1.40;;;;;;;23.99;14.30;97333.22;6295018;28;20422;-75
2023/04/24 13:29:47;;;;;;;2.78;1.08;;;;;;;23.94;14.30;97335.56;6295211;28;20135;-74
2023/04/24 13:32:52;;;;;;;3.20;1.27;;;;;;;23.80;14.59;97325.53;6295096;28;20048;-76
2023/04/24 13:35:59;;;;;;;3.25;1.40;;;;;;;23.69;14.72;97338.31;6295203;28;20040;-74
2023/04/24 13:39:05;;;;;;;2.25;1.40;;;;;;;23.60;14.48;97339.31;6294889;28;20049;-75
2023/04/24 13:42:13;;;;;;;3.75;1.60;;;;;;;23.66;14.27;97337.78;6295189;28;20533;-75
2023/04/24 13:45:17;;;;;;;2.65;2.10;;;;;;;23.31;15.02;97329.94;6294254;28;20044;-76
2023/04/24 13:48:21;;;;;;;4.03;2.38;;;;;;;23.21;14.85;97350.75;6295076;28;20044;-74
2023/04/24 13:51:30;;;;;;;4.20;2.88;;;;;;;23.30;14.84;97344.38;6294842;28;20040;-75
2023/04/24 13:54:38;;;;;;;3.03;2.03;;;;;;;23.27;15.09;97339.34;6277341;28;20052;-74
2023/04/24 13:57:42;;;;;;;3.42;1.90;;;;;;;23.01;15.05;97333.28;6294751;28;20051;-76
2023/04/24 14:00:49;;;;;;;1.75;1.33;;;;;;;22.78;15.44;97339.25;6294137;28;20044;-74
2023/04/24 14:03:55;;;;;;;1.30;1.08;;;;;;;22.55;15.81;97343.56;6294141;28;20063;-75
2023/04/24 14:06:57;;;;;;;2.85;1.67;;;;;;;22.45;15.64;97342.84;6292801;28;20048;-75
2023/04/24 14:10:01;;;;;;;4.80;2.95;;;;;;;22.42;15.45;97339.50;6294074;28;20059;-75
2023/04/24 14:13:07;;;;;;;5.28;2.33;;;;;;;22.37;15.92;97336.47;6294695;28;20517;-74
2023/04/24 14:16:16;;;;;;;1.85;1.25;;;;;;;22.25;15.73;97342.25;6294701;28;20496;-74
2023/04/24 14:19:18;;;;;;;2.78;1.10;;;;;;;22.15;16.00;97347.72;6293855;28;20044;-75
2023/04/24 14:22:20;;;;;;;2.17;1.25;;;;;;;22.01;16.11;97346.50;6294103;28;20044;-74
2023/04/24 14:25:26;;;;;;;1.30;1.10;;;;;;;21.71;16.28;97345.13;6294209;28;20044;-76
2023/04/24 14:28:30;;;;;;;2.03;1.35;;;;;;;21.49;16.36;97350.03;6294581;28;20044;-76
2023/04/24 14:31:32;;;;;;;2.50;0.90;;;;;;;21.35;16.67;97347.88;6294441;28;20052;-75
2023/04/24 14:34:36;;;;;;;4.00;1.30;;;;;;;21.18;16.70;97359.44;6294583;28;20044;-75
2023/04/24 14:37:41;;;;;;;2.60;1.75;;;;;;;21.00;16.94;97351.41;6294362;28;20040;-76
2023/04/24 14:40:44;;;;;;;3.58;1.55;;;;;;;20.80;17.03;97366.75;6294204;28;20052;-76
2023/04/24 14:43:48;;;;;;;2.72;1.58;;;;;;;20.62;17.44;97364.91;6293932;28;20526;-76
2023/04/24 14:46:52;;;;;;;2.85;1.70;;;;;;;20.34;17.77;97361.38;6293964;28;20056;-75